sensor_id;sensor_type;location;lat;lon;timestamp;temperature;humidity
64650;HTU21D;51061;45.258;38.112;2022-08-05T00:01:15;23.73;73.75
64650;HTU21D;51061;45.258;38.112;2022-08-05T00:03:42;23.73;73.90
64650;HTU21D;51061;45.258;38.112;2022-08-05T00:06:09;23.71;73.91
64650;HTU21D;51061;45.258;38.112;2022-08-05T00:08:36;23.71;73.97
64650;HTU21D;51061;45.258;38.112;2022-08-05T00:11:05;23.72;73.94
64650;HTU21D;51061;45.258;38.112;2022-08-05T00:13:36;23.71;73.93
64650;HTU21D;51061;45.258;38.112;2022-08-05T00:16:03;23.70;74.03
64650;HTU21D;51061;45.258;38.112;2022-08-05T00:18:30;23.68;74.15
64650;HTU21D;51061;45.258;38.112;2022-08-05T00:20:56;23.68;74.17
64650;HTU21D;51061;45.258;38.112;2022-08-05T00:23:23;23.66;74.19
64650;HTU21D;51061;45.258;38.112;2022-08-05T00:25:50;23.65;74.30
64650;HTU21D;51061;45.258;38.112;2022-08-05T00:28:16;23.64;74.35
64650;HTU21D;51061;45.258;38.112;2022-08-05T00:30:42;23.62;74.37
64650;HTU21D;51061;45.258;38.112;2022-08-05T00:33:09;23.61;74.39
64650;HTU21D;51061;45.258;38.112;2022-08-05T00:35:35;23.60;74.41
64650;HTU21D;51061;45.258;38.112;2022-08-05T00:38:01;23.57;74.49
64650;HTU21D;51061;45.258;38.112;2022-08-05T00:40:27;23.53;74.63
64650;HTU21D;51061;45.258;38.112;2022-08-05T00:42:55;23.47;74.76
64650;HTU21D;51061;45.258;38.112;2022-08-05T00:45:21;23.44;74.86
64650;HTU21D;51061;45.258;38.112;2022-08-05T00:47:47;23.43;74.95
64650;HTU21D;51061;45.258;38.112;2022-08-05T00:50:13;23.45;75.03
64650;HTU21D;51061;45.258;38.112;2022-08-05T00:52:39;23.44;75.04
64650;HTU21D;51061;45.258;38.112;2022-08-05T00:55:06;23.43;75.05
64650;HTU21D;51061;45.258;38.112;2022-08-05T00:57:32;23.43;75.05
64650;HTU21D;51061;45.258;38.112;2022-08-05T00:59:58;23.43;75.15
64650;HTU21D;51061;45.258;38.112;2022-08-05T01:02:24;23.43;75.17
64650;HTU21D;51061;45.258;38.112;2022-08-05T01:04:50;23.43;75.20
64650;HTU21D;51061;45.258;38.112;2022-08-05T01:07:16;23.43;75.35
64650;HTU21D;51061;45.258;38.112;2022-08-05T01:09:42;23.41;75.34
64650;HTU21D;51061;45.258;38.112;2022-08-05T01:12:11;23.41;75.37
64650;HTU21D;51061;45.258;38.112;2022-08-05T01:14:51;23.38;75.38
64650;HTU21D;51061;45.258;38.112;2022-08-05T01:17:28;23.37;75.49
64650;HTU21D;51061;45.258;38.112;2022-08-05T01:26:38;23.27;75.49
64650;HTU21D;51061;45.258;38.112;2022-08-05T01:29:30;23.29;75.71
64650;HTU21D;51061;45.258;38.112;2022-08-05T01:31:59;23.28;75.80
64650;HTU21D;51061;45.258;38.112;2022-08-05T01:39:36;23.28;76.23
64650;HTU21D;51061;45.258;38.112;2022-08-05T01:42:05;23.28;76.33
64650;HTU21D;51061;45.258;38.112;2022-08-05T01:44:32;23.29;76.47
64650;HTU21D;51061;45.258;38.112;2022-08-05T01:47:00;23.27;76.59
64650;HTU21D;51061;45.258;38.112;2022-08-05T01:49:28;23.28;76.70
64650;HTU21D;51061;45.258;38.112;2022-08-05T01:52:03;23.26;76.67
64650;HTU21D;51061;45.258;38.112;2022-08-05T01:54:40;23.25;76.85
64650;HTU21D;51061;45.258;38.112;2022-08-05T01:57:09;23.27;77.08
64650;HTU21D;51061;45.258;38.112;2022-08-05T01:59:38;23.29;77.16
64650;HTU21D;51061;45.258;38.112;2022-08-05T02:02:06;23.28;77.29
64650;HTU21D;51061;45.258;38.112;2022-08-05T02:04:36;23.29;77.24
64650;HTU21D;51061;45.258;38.112;2022-08-05T02:07:03;23.26;77.30
64650;HTU21D;51061;45.258;38.112;2022-08-05T02:09:29;23.27;77.41
64650;HTU21D;51061;45.258;38.112;2022-08-05T02:12:13;23.23;77.26
64650;HTU21D;51061;45.258;38.112;2022-08-05T02:14:52;23.22;77.27
64650;HTU21D;51061;45.258;38.112;2022-08-05T02:17:30;23.23;77.31
64650;HTU21D;51061;45.258;38.112;2022-08-05T02:20:02;23.21;77.47
64650;HTU21D;51061;45.258;38.112;2022-08-05T02:22:35;23.22;77.37
64650;HTU21D;51061;45.258;38.112;2022-08-05T02:25:13;23.21;77.32
64650;HTU21D;51061;45.258;38.112;2022-08-05T02:27:40;23.21;77.51
64650;HTU21D;51061;45.258;38.112;2022-08-05T02:30:09;23.18;77.38
64650;HTU21D;51061;45.258;38.112;2022-08-05T02:32:37;23.18;77.42
64650;HTU21D;51061;45.258;38.112;2022-08-05T02:35:13;23.16;77.39
64650;HTU21D;51061;45.258;38.112;2022-08-05T02:37:41;23.15;77.54
64650;HTU21D;51061;45.258;38.112;2022-08-05T02:40:09;23.14;77.57
64650;HTU21D;51061;45.258;38.112;2022-08-05T02:42:36;23.13;77.60
64650;HTU21D;51061;45.258;38.112;2022-08-05T02:45:03;23.12;77.67
64650;HTU21D;51061;45.258;38.112;2022-08-05T02:47:31;23.13;77.70
64650;HTU21D;51061;45.258;38.112;2022-08-05T02:50:01;23.12;77.74
64650;HTU21D;51061;45.258;38.112;2022-08-05T02:52:28;23.12;77.76
64650;HTU21D;51061;45.258;38.112;2022-08-05T02:54:54;23.13;77.91
64650;HTU21D;51061;45.258;38.112;2022-08-05T02:57:21;23.15;77.96
64650;HTU21D;51061;45.258;38.112;2022-08-05T02:59:49;23.16;78.01
64650;HTU21D;51061;45.258;38.112;2022-08-05T03:02:22;23.21;77.93
64650;HTU21D;51061;45.258;38.112;2022-08-05T03:04:50;23.24;78.03
64650;HTU21D;51061;45.258;38.112;2022-08-05T03:07:19;23.27;78.01
64650;HTU21D;51061;45.258;38.112;2022-08-05T03:09:46;23.28;78.06
64650;HTU21D;51061;45.258;38.112;2022-08-05T03:12:32;23.29;77.83
64650;HTU21D;51061;45.258;38.112;2022-08-05T03:14:59;23.32;78.04
64650;HTU21D;51061;45.258;38.112;2022-08-05T03:17:26;23.36;78.09
64650;HTU21D;51061;45.258;38.112;2022-08-05T03:19:52;23.41;78.08
64650;HTU21D;51061;45.258;38.112;2022-08-05T03:22:18;23.51;77.96
64650;HTU21D;51061;45.258;38.112;2022-08-05T03:24:45;23.57;77.82
64650;HTU21D;51061;45.258;38.112;2022-08-05T03:27:12;23.61;77.76
64650;HTU21D;51061;45.258;38.112;2022-08-05T03:29:39;23.69;77.65
64650;HTU21D;51061;45.258;38.112;2022-08-05T03:32:07;23.80;77.50
64650;HTU21D;51061;45.258;38.112;2022-08-05T03:34:33;23.89;77.34
64650;HTU21D;51061;45.258;38.112;2022-08-05T03:37:01;23.99;77.15
64650;HTU21D;51061;45.258;38.112;2022-08-05T03:39:28;24.08;77.01
64650;HTU21D;51061;45.258;38.112;2022-08-05T03:41:56;24.18;76.73
64650;HTU21D;51061;45.258;38.112;2022-08-05T03:44:22;24.29;76.54
64650;HTU21D;51061;45.258;38.112;2022-08-05T03:46:49;24.38;76.33
64650;HTU21D;51061;45.258;38.112;2022-08-05T03:49:15;24.50;76.08
64650;HTU21D;51061;45.258;38.112;2022-08-05T03:54:33;24.70;75.53
64650;HTU21D;51061;45.258;38.112;2022-08-05T03:57:01;24.79;75.31
64650;HTU21D;51061;45.258;38.112;2022-08-05T03:59:39;24.88;75.08
64650;HTU21D;51061;45.258;38.112;2022-08-05T04:02:07;25.00;74.80
64650;HTU21D;51061;45.258;38.112;2022-08-05T04:04:34;25.10;74.51
64650;HTU21D;51061;45.258;38.112;2022-08-05T04:07:02;25.22;74.15
64650;HTU21D;51061;45.258;38.112;2022-08-05T04:09:29;25.32;73.82
64650;HTU21D;51061;45.258;38.112;2022-08-05T04:11:55;25.42;73.61
64650;HTU21D;51061;45.258;38.112;2022-08-05T04:14:21;25.53;73.32
64650;HTU21D;51061;45.258;38.112;2022-08-05T04:16:48;25.62;72.96
64650;HTU21D;51061;45.258;38.112;2022-08-05T04:19:14;25.72;72.74
64650;HTU21D;51061;45.258;38.112;2022-08-05T04:21:41;25.82;72.38
64650;HTU21D;51061;45.258;38.112;2022-08-05T04:24:07;25.92;72.03
64650;HTU21D;51061;45.258;38.112;2022-08-05T04:26:33;25.99;71.84
64650;HTU21D;51061;45.258;38.112;2022-08-05T04:29:00;26.10;71.51
64650;HTU21D;51061;45.258;38.112;2022-08-05T04:31:26;26.20;71.14
64650;HTU21D;51061;45.258;38.112;2022-08-05T04:33:52;26.28;70.87
64650;HTU21D;51061;45.258;38.112;2022-08-05T04:36:19;26.36;70.62
64650;HTU21D;51061;45.258;38.112;2022-08-05T04:38:45;26.46;70.16
64650;HTU21D;51061;45.258;38.112;2022-08-05T04:41:11;26.55;69.92
64650;HTU21D;51061;45.258;38.112;2022-08-05T04:43:38;26.65;69.61
64650;HTU21D;51061;45.258;38.112;2022-08-05T04:46:04;26.72;69.29
64650;HTU21D;51061;45.258;38.112;2022-08-05T04:48:30;26.80;68.91
64650;HTU21D;51061;45.258;38.112;2022-08-05T04:50:57;26.79;68.78
64650;HTU21D;51061;45.258;38.112;2022-08-05T04:53:23;26.79;68.55
64650;HTU21D;51061;45.258;38.112;2022-08-05T04:55:49;26.84;68.38
64650;HTU21D;51061;45.258;38.112;2022-08-05T04:58:16;26.86;68.09
64650;HTU21D;51061;45.258;38.112;2022-08-05T05:00:43;26.89;67.75
64650;HTU21D;51061;45.258;38.112;2022-08-05T05:03:09;26.95;67.72
64650;HTU21D;51061;45.258;38.112;2022-08-05T05:05:36;27.04;67.41
64650;HTU21D;51061;45.258;38.112;2022-08-05T05:08:07;27.08;67.17
64650;HTU21D;51061;45.258;38.112;2022-08-05T05:10:44;27.11;67.04
64650;HTU21D;51061;45.258;38.112;2022-08-05T05:13:15;27.19;66.74
64650;HTU21D;51061;45.258;38.112;2022-08-05T05:15:42;27.19;66.93
64650;HTU21D;51061;45.258;38.112;2022-08-05T05:18:14;27.22;67.07
64650;HTU21D;51061;45.258;38.112;2022-08-05T05:20:44;27.25;67.23
64650;HTU21D;51061;45.258;38.112;2022-08-05T05:23:11;27.27;67.08
64650;HTU21D;51061;45.258;38.112;2022-08-05T05:25:41;27.30;66.98
64650;HTU21D;51061;45.258;38.112;2022-08-05T05:28:08;27.39;66.72
64650;HTU21D;51061;45.258;38.112;2022-08-05T05:30:35;27.45;66.33
64650;HTU21D;51061;45.258;38.112;2022-08-05T05:33:03;27.52;66.22
64650;HTU21D;51061;45.258;38.112;2022-08-05T05:35:31;27.60;65.84
64650;HTU21D;51061;45.258;38.112;2022-08-05T05:37:59;27.73;65.37
64650;HTU21D;51061;45.258;38.112;2022-08-05T05:40:26;27.86;65.15
64650;HTU21D;51061;45.258;38.112;2022-08-05T05:42:53;28.03;64.84
64650;HTU21D;51061;45.258;38.112;2022-08-05T05:45:19;28.20;64.59
64650;HTU21D;51061;45.258;38.112;2022-08-05T05:47:46;28.37;64.08
64650;HTU21D;51061;45.258;38.112;2022-08-05T05:50:16;28.50;63.66
64650;HTU21D;51061;45.258;38.112;2022-08-05T05:52:43;28.58;63.38
64650;HTU21D;51061;45.258;38.112;2022-08-05T05:55:11;28.57;63.38
64650;HTU21D;51061;45.258;38.112;2022-08-05T05:57:39;28.58;63.22
64650;HTU21D;51061;45.258;38.112;2022-08-05T06:00:08;28.68;62.95
64650;HTU21D;51061;45.258;38.112;2022-08-05T06:02:41;28.72;62.73
64650;HTU21D;51061;45.258;38.112;2022-08-05T06:05:09;28.77;62.57
64650;HTU21D;51061;45.258;38.112;2022-08-05T06:07:35;28.91;62.10
64650;HTU21D;51061;45.258;38.112;2022-08-05T06:10:03;28.99;61.82
64650;HTU21D;51061;45.258;38.112;2022-08-05T06:12:30;29.07;61.63
64650;HTU21D;51061;45.258;38.112;2022-08-05T06:14:56;29.14;61.48
64650;HTU21D;51061;45.258;38.112;2022-08-05T06:17:22;29.12;61.31
64650;HTU21D;51061;45.258;38.112;2022-08-05T06:19:48;29.15;61.25
64650;HTU21D;51061;45.258;38.112;2022-08-05T06:22:22;29.21;61.18
64650;HTU21D;51061;45.258;38.112;2022-08-05T06:24:49;29.34;60.67
64650;HTU21D;51061;45.258;38.112;2022-08-05T06:27:15;29.50;60.31
64650;HTU21D;51061;45.258;38.112;2022-08-05T06:29:41;29.70;59.80
64650;HTU21D;51061;45.258;38.112;2022-08-05T06:32:08;29.87;59.58
64650;HTU21D;51061;45.258;38.112;2022-08-05T06:34:35;30.00;59.00
64650;HTU21D;51061;45.258;38.112;2022-08-05T06:37:01;30.13;58.47
64650;HTU21D;51061;45.258;38.112;2022-08-05T06:39:27;30.32;58.13
64650;HTU21D;51061;45.258;38.112;2022-08-05T06:41:56;30.51;57.58
64650;HTU21D;51061;45.258;38.112;2022-08-05T06:44:23;30.66;57.09
64650;HTU21D;51061;45.258;38.112;2022-08-05T06:46:49;30.81;56.79
64650;HTU21D;51061;45.258;38.112;2022-08-05T06:49:17;30.97;56.49
64650;HTU21D;51061;45.258;38.112;2022-08-05T06:51:43;31.04;56.14
64650;HTU21D;51061;45.258;38.112;2022-08-05T06:54:09;31.12;55.65
64650;HTU21D;51061;45.258;38.112;2022-08-05T06:56:36;31.26;55.42
64650;HTU21D;51061;45.258;38.112;2022-08-05T06:59:03;31.44;55.05
64650;HTU21D;51061;45.258;38.112;2022-08-05T07:01:29;31.58;54.68
64650;HTU21D;51061;45.258;38.112;2022-08-05T07:03:55;31.68;54.14
64650;HTU21D;51061;45.258;38.112;2022-08-05T07:06:22;31.75;53.61
64650;HTU21D;51061;45.258;38.112;2022-08-05T07:08:48;31.85;53.69
64650;HTU21D;51061;45.258;38.112;2022-08-05T07:11:14;31.95;53.49
64650;HTU21D;51061;45.258;38.112;2022-08-05T07:13:41;32.05;53.44
64650;HTU21D;51061;45.258;38.112;2022-08-05T07:16:27;32.17;52.78
64650;HTU21D;51061;45.258;38.112;2022-08-05T07:19:11;32.28;52.50
64650;HTU21D;51061;45.258;38.112;2022-08-05T07:21:38;32.34;51.91
64650;HTU21D;51061;45.258;38.112;2022-08-05T07:24:23;32.14;51.95
64650;HTU21D;51061;45.258;38.112;2022-08-05T07:26:49;32.10;52.13
64650;HTU21D;51061;45.258;38.112;2022-08-05T07:29:15;32.25;52.01
64650;HTU21D;51061;45.258;38.112;2022-08-05T07:31:41;32.44;51.26
64650;HTU21D;51061;45.258;38.112;2022-08-05T07:34:09;32.55;51.08
64650;HTU21D;51061;45.258;38.112;2022-08-05T07:36:35;32.70;50.72
64650;HTU21D;51061;45.258;38.112;2022-08-05T07:39:07;32.82;50.32
64650;HTU21D;51061;45.258;38.112;2022-08-05T07:41:33;32.92;49.83
64650;HTU21D;51061;45.258;38.112;2022-08-05T07:44:01;33.06;49.38
64650;HTU21D;51061;45.258;38.112;2022-08-05T07:46:29;33.19;48.82
64650;HTU21D;51061;45.258;38.112;2022-08-05T07:48:57;33.28;48.49
64650;HTU21D;51061;45.258;38.112;2022-08-05T07:51:23;33.33;48.36
64650;HTU21D;51061;45.258;38.112;2022-08-05T07:53:49;33.36;48.00
64650;HTU21D;51061;45.258;38.112;2022-08-05T07:56:15;33.38;48.18
64650;HTU21D;51061;45.258;38.112;2022-08-05T07:58:42;33.37;47.86
64650;HTU21D;51061;45.258;38.112;2022-08-05T08:01:08;33.37;47.65
64650;HTU21D;51061;45.258;38.112;2022-08-05T08:03:34;33.44;47.50
64650;HTU21D;51061;45.258;38.112;2022-08-05T08:06:00;33.52;47.54
64650;HTU21D;51061;45.258;38.112;2022-08-05T08:08:26;33.63;47.22
64650;HTU21D;51061;45.258;38.112;2022-08-05T08:10:52;33.73;46.88
64650;HTU21D;51061;45.258;38.112;2022-08-05T08:13:20;33.83;46.70
64650;HTU21D;51061;45.258;38.112;2022-08-05T08:15:46;33.76;46.76
64650;HTU21D;51061;45.258;38.112;2022-08-05T08:18:12;33.91;46.69
64650;HTU21D;51061;45.258;38.112;2022-08-05T08:20:39;35.08;44.19
64650;HTU21D;51061;45.258;38.112;2022-08-05T08:23:05;36.23;41.39
64650;HTU21D;51061;45.258;38.112;2022-08-05T08:25:32;36.89;39.62
64650;HTU21D;51061;45.258;38.112;2022-08-05T08:27:59;37.31;38.66
64650;HTU21D;51061;45.258;38.112;2022-08-05T08:30:26;37.75;37.99
64650;HTU21D;51061;45.258;38.112;2022-08-05T08:32:52;38.50;36.41
64650;HTU21D;51061;45.258;38.112;2022-08-05T08:35:18;38.07;37.15
64650;HTU21D;51061;45.258;38.112;2022-08-05T08:37:45;37.69;37.77
64650;HTU21D;51061;45.258;38.112;2022-08-05T08:40:12;37.69;37.80
64650;HTU21D;51061;45.258;38.112;2022-08-05T08:42:39;38.53;36.25
64650;HTU21D;51061;45.258;38.112;2022-08-05T08:45:06;38.64;35.96
64650;HTU21D;51061;45.258;38.112;2022-08-05T08:47:33;39.42;34.48
64650;HTU21D;51061;45.258;38.112;2022-08-05T08:50:02;40.56;32.64
64650;HTU21D;51061;45.258;38.112;2022-08-05T08:52:31;41.18;31.59
64650;HTU21D;51061;45.258;38.112;2022-08-05T08:54:58;41.74;30.35
64650;HTU21D;51061;45.258;38.112;2022-08-05T08:57:25;40.47;32.09
64650;HTU21D;51061;45.258;38.112;2022-08-05T08:59:51;40.68;31.91
64650;HTU21D;51061;45.258;38.112;2022-08-05T09:02:18;41.54;30.46
64650;HTU21D;51061;45.258;38.112;2022-08-05T09:04:45;41.84;29.96
64650;HTU21D;51061;45.258;38.112;2022-08-05T09:07:12;41.30;30.80
64650;HTU21D;51061;45.258;38.112;2022-08-05T09:09:38;41.30;30.64
64650;HTU21D;51061;45.258;38.112;2022-08-05T09:12:07;41.12;30.96
64650;HTU21D;51061;45.258;38.112;2022-08-05T09:14:37;40.93;30.92
64650;HTU21D;51061;45.258;38.112;2022-08-05T09:17:07;40.93;30.83
64650;HTU21D;51061;45.258;38.112;2022-08-05T09:19:34;41.42;30.09
64650;HTU21D;51061;45.258;38.112;2022-08-05T09:22:01;41.96;29.13
64650;HTU21D;51061;45.258;38.112;2022-08-05T09:24:27;42.76;27.83
64650;HTU21D;51061;45.258;38.112;2022-08-05T09:26:56;43.52;26.95
64650;HTU21D;51061;45.258;38.112;2022-08-05T09:29:37;44.25;26.23
64650;HTU21D;51061;45.258;38.112;2022-08-05T09:32:05;44.70;25.11
64650;HTU21D;51061;45.258;38.112;2022-08-05T09:34:53;43.59;26.35
64650;HTU21D;51061;45.258;38.112;2022-08-05T09:37:22;41.65;28.72
64650;HTU21D;51061;45.258;38.112;2022-08-05T09:39:48;40.53;30.36
64650;HTU21D;51061;45.258;38.112;2022-08-05T09:42:17;39.89;31.57
64650;HTU21D;51061;45.258;38.112;2022-08-05T09:44:48;40.24;31.59
64650;HTU21D;51061;45.258;38.112;2022-08-05T09:47:20;41.62;29.44
64650;HTU21D;51061;45.258;38.112;2022-08-05T09:49:51;41.15;30.20
64650;HTU21D;51061;45.258;38.112;2022-08-05T09:52:32;40.07;31.64
64650;HTU21D;51061;45.258;38.112;2022-08-05T09:55:10;39.07;33.05
64650;HTU21D;51061;45.258;38.112;2022-08-05T09:57:39;40.13;31.47
64650;HTU21D;51061;45.258;38.112;2022-08-05T10:00:17;40.27;31.60
64650;HTU21D;51061;45.258;38.112;2022-08-05T10:02:48;41.58;29.97
64650;HTU21D;51061;45.258;38.112;2022-08-05T10:05:19;42.02;29.15
64650;HTU21D;51061;45.258;38.112;2022-08-05T10:08:03;41.45;29.87
64650;HTU21D;51061;45.258;38.112;2022-08-05T10:10:36;40.63;30.84
64650;HTU21D;51061;45.258;38.112;2022-08-05T10:13:05;40.01;31.69
64650;HTU21D;51061;45.258;38.112;2022-08-05T10:15:34;39.37;32.73
64650;HTU21D;51061;45.258;38.112;2022-08-05T10:18:13;38.86;33.55
64650;HTU21D;51061;45.258;38.112;2022-08-05T10:20:51;38.51;33.96
64650;HTU21D;51061;45.258;38.112;2022-08-05T10:23:23;38.32;34.25
64650;HTU21D;51061;45.258;38.112;2022-08-05T10:25:50;39.80;32.04
64650;HTU21D;51061;45.258;38.112;2022-08-05T10:28:17;40.14;31.25
64650;HTU21D;51061;45.258;38.112;2022-08-05T10:30:43;39.86;31.83
64650;HTU21D;51061;45.258;38.112;2022-08-05T10:33:09;39.15;32.82
64650;HTU21D;51061;45.258;38.112;2022-08-05T10:35:36;38.69;33.54
64650;HTU21D;51061;45.258;38.112;2022-08-05T10:38:04;38.30;34.05
64650;HTU21D;51061;45.258;38.112;2022-08-05T10:40:50;37.85;34.79
64650;HTU21D;51061;45.258;38.112;2022-08-05T10:46:08;38.12;34.73
64650;HTU21D;51061;45.258;38.112;2022-08-05T10:48:37;37.73;35.08
64650;HTU21D;51061;45.258;38.112;2022-08-05T10:53:44;36.90;36.40
64650;HTU21D;51061;45.258;38.112;2022-08-05T10:56:22;36.75;36.57
64650;HTU21D;51061;45.258;38.112;2022-08-05T11:04:11;36.46;36.14
64650;HTU21D;51061;45.258;38.112;2022-08-05T11:07:06;36.17;36.50
64650;HTU21D;51061;45.258;38.112;2022-08-05T11:09:45;36.08;36.69
64650;HTU21D;51061;45.258;38.112;2022-08-05T11:17:53;38.34;32.54
64650;HTU21D;51061;45.258;38.112;2022-08-05T11:20:38;37.67;33.12
64650;HTU21D;51061;45.258;38.112;2022-08-05T11:26:10;36.66;34.49
64650;HTU21D;51061;45.258;38.112;2022-08-05T11:28:37;36.40;34.79
64650;HTU21D;51061;45.258;38.112;2022-08-05T11:35:59;36.18;35.68
64650;HTU21D;51061;45.258;38.112;2022-08-05T11:41:14;36.15;35.44
64650;HTU21D;51061;45.258;38.112;2022-08-05T11:44:04;35.98;35.44
64650;HTU21D;51061;45.258;38.112;2022-08-05T11:46:50;35.92;35.36
64650;HTU21D;51061;45.258;38.112;2022-08-05T11:49:21;35.60;36.56
64650;HTU21D;51061;45.258;38.112;2022-08-05T11:51:49;35.67;36.11
64650;HTU21D;51061;45.258;38.112;2022-08-05T11:56:51;35.63;36.10
64650;HTU21D;51061;45.258;38.112;2022-08-05T11:59:22;35.69;36.25
64650;HTU21D;51061;45.258;38.112;2022-08-05T12:02:04;35.75;35.90
64650;HTU21D;51061;45.258;38.112;2022-08-05T12:04:44;35.82;36.05
64650;HTU21D;51061;45.258;38.112;2022-08-05T12:07:12;35.87;35.96
64650;HTU21D;51061;45.258;38.112;2022-08-05T12:09:48;35.95;35.82
64650;HTU21D;51061;45.258;38.112;2022-08-05T12:12:23;35.84;35.79
64650;HTU21D;51061;45.258;38.112;2022-08-05T12:14:52;35.68;36.03
64650;HTU21D;51061;45.258;38.112;2022-08-05T12:17:18;35.70;36.38
64650;HTU21D;51061;45.258;38.112;2022-08-05T12:19:47;35.71;35.92
64650;HTU21D;51061;45.258;38.112;2022-08-05T12:22:15;35.67;35.76
64650;HTU21D;51061;45.258;38.112;2022-08-05T12:24:43;35.63;35.92
64650;HTU21D;51061;45.258;38.112;2022-08-05T12:27:17;35.65;35.85
64650;HTU21D;51061;45.258;38.112;2022-08-05T12:29:44;35.58;35.97
64650;HTU21D;51061;45.258;38.112;2022-08-05T12:32:11;35.55;35.96
64650;HTU21D;51061;45.258;38.112;2022-08-05T12:34:37;35.54;36.43
64650;HTU21D;51061;45.258;38.112;2022-08-05T12:37:09;35.51;36.35
64650;HTU21D;51061;45.258;38.112;2022-08-05T12:39:38;35.27;36.77
64650;HTU21D;51061;45.258;38.112;2022-08-05T12:42:10;35.18;36.88
64650;HTU21D;51061;45.258;38.112;2022-08-05T12:44:36;35.03;37.30
64650;HTU21D;51061;45.258;38.112;2022-08-05T12:47:03;34.83;37.81
64650;HTU21D;51061;45.258;38.112;2022-08-05T12:49:46;34.79;38.04
64650;HTU21D;51061;45.258;38.112;2022-08-05T12:52:16;34.66;38.55
64650;HTU21D;51061;45.258;38.112;2022-08-05T12:54:44;34.81;37.81
64650;HTU21D;51061;45.258;38.112;2022-08-05T12:57:12;34.86;37.91
64650;HTU21D;51061;45.258;38.112;2022-08-05T12:59:53;34.99;37.07
64650;HTU21D;51061;45.258;38.112;2022-08-05T13:02:21;34.99;38.08
64650;HTU21D;51061;45.258;38.112;2022-08-05T13:04:49;34.81;39.06
64650;HTU21D;51061;45.258;38.112;2022-08-05T13:07:18;34.70;39.64
64650;HTU21D;51061;45.258;38.112;2022-08-05T13:09:54;34.59;40.22
64650;HTU21D;51061;45.258;38.112;2022-08-05T13:12:24;34.48;40.91
64650;HTU21D;51061;45.258;38.112;2022-08-05T13:14:55;34.38;41.45
64650;HTU21D;51061;45.258;38.112;2022-08-05T13:17:23;34.27;41.50
64650;HTU21D;51061;45.258;38.112;2022-08-05T13:20:10;34.14;41.69
64650;HTU21D;51061;45.258;38.112;2022-08-05T13:22:39;34.05;41.87
64650;HTU21D;51061;45.258;38.112;2022-08-05T13:25:10;33.96;42.19
64650;HTU21D;51061;45.258;38.112;2022-08-05T13:27:46;33.85;42.61
64650;HTU21D;51061;45.258;38.112;2022-08-05T13:30:14;33.72;42.88
64650;HTU21D;51061;45.258;38.112;2022-08-05T13:32:40;33.52;41.57
64650;HTU21D;51061;45.258;38.112;2022-08-05T13:35:08;33.34;41.13
64650;HTU21D;51061;45.258;38.112;2022-08-05T13:37:39;33.17;41.07
64650;HTU21D;51061;45.258;38.112;2022-08-05T13:40:06;33.04;41.48
64650;HTU21D;51061;45.258;38.112;2022-08-05T13:42:32;32.90;41.76
64650;HTU21D;51061;45.258;38.112;2022-08-05T13:44:58;32.76;42.23
64650;HTU21D;51061;45.258;38.112;2022-08-05T13:47:25;32.64;42.07
64650;HTU21D;51061;45.258;38.112;2022-08-05T13:49:51;32.55;42.25
64650;HTU21D;51061;45.258;38.112;2022-08-05T13:52:19;32.47;42.57
64650;HTU21D;51061;45.258;38.112;2022-08-05T13:54:46;32.42;42.41
64650;HTU21D;51061;45.258;38.112;2022-08-05T13:57:12;32.32;42.07
64650;HTU21D;51061;45.258;38.112;2022-08-05T13:59:39;32.20;41.87
64650;HTU21D;51061;45.258;38.112;2022-08-05T14:02:08;32.16;41.65
64650;HTU21D;51061;45.258;38.112;2022-08-05T14:04:36;32.10;41.55
64650;HTU21D;51061;45.258;38.112;2022-08-05T14:07:24;31.97;41.72
64650;HTU21D;51061;45.258;38.112;2022-08-05T14:09:50;31.87;41.94
64650;HTU21D;51061;45.258;38.112;2022-08-05T14:12:16;31.83;41.97
64650;HTU21D;51061;45.258;38.112;2022-08-05T14:14:43;31.82;42.23
64650;HTU21D;51061;45.258;38.112;2022-08-05T14:17:09;31.82;42.48
64650;HTU21D;51061;45.258;38.112;2022-08-05T14:19:35;31.80;43.10
64650;HTU21D;51061;45.258;38.112;2022-08-05T14:22:01;31.73;44.03
64650;HTU21D;51061;45.258;38.112;2022-08-05T14:24:28;31.67;44.92
64650;HTU21D;51061;45.258;38.112;2022-08-05T14:26:54;31.60;45.96
64650;HTU21D;51061;45.258;38.112;2022-08-05T14:29:20;31.54;46.81
64650;HTU21D;51061;45.258;38.112;2022-08-05T14:31:46;31.48;47.59
64650;HTU21D;51061;45.258;38.112;2022-08-05T14:34:12;31.39;47.75
64650;HTU21D;51061;45.258;38.112;2022-08-05T14:36:38;31.34;47.68
64650;HTU21D;51061;45.258;38.112;2022-08-05T14:39:04;31.29;47.56
64650;HTU21D;51061;45.258;38.112;2022-08-05T14:41:31;31.24;47.41
64650;HTU21D;51061;45.258;38.112;2022-08-05T14:43:58;31.18;47.41
64650;HTU21D;51061;45.258;38.112;2022-08-05T14:46:25;31.15;47.25
64650;HTU21D;51061;45.258;38.112;2022-08-05T14:48:52;31.11;47.41
64650;HTU21D;51061;45.258;38.112;2022-08-05T14:51:18;31.08;47.86
64650;HTU21D;51061;45.258;38.112;2022-08-05T14:53:45;31.08;48.08
64650;HTU21D;51061;45.258;38.112;2022-08-05T14:56:13;31.04;48.08
64650;HTU21D;51061;45.258;38.112;2022-08-05T14:58:41;30.93;47.94
64650;HTU21D;51061;45.258;38.112;2022-08-05T15:01:09;30.85;47.33
64650;HTU21D;51061;45.258;38.112;2022-08-05T15:03:35;30.69;47.17
64650;HTU21D;51061;45.258;38.112;2022-08-05T15:06:07;30.52;46.89
64650;HTU21D;51061;45.258;38.112;2022-08-05T15:08:34;30.27;46.98
64650;HTU21D;51061;45.258;38.112;2022-08-05T15:11:05;30.12;47.07
64650;HTU21D;51061;45.258;38.112;2022-08-05T15:13:34;29.98;47.23
64650;HTU21D;51061;45.258;38.112;2022-08-05T15:16:02;29.86;47.51
64650;HTU21D;51061;45.258;38.112;2022-08-05T15:18:30;29.80;47.55
64650;HTU21D;51061;45.258;38.112;2022-08-05T15:21:01;29.67;47.48
64650;HTU21D;51061;45.258;38.112;2022-08-05T15:23:37;29.51;47.60
64650;HTU21D;51061;45.258;38.112;2022-08-05T15:26:04;29.42;47.85
64650;HTU21D;51061;45.258;38.112;2022-08-05T15:28:33;29.39;47.99
64650;HTU21D;51061;45.258;38.112;2022-08-05T15:31:01;29.37;47.86
64650;HTU21D;51061;45.258;38.112;2022-08-05T15:33:31;29.36;47.65
64650;HTU21D;51061;45.258;38.112;2022-08-05T15:35:58;29.34;47.71
64650;HTU21D;51061;45.258;38.112;2022-08-05T15:38:25;29.30;47.80
64650;HTU21D;51061;45.258;38.112;2022-08-05T15:40:51;29.27;47.79
64650;HTU21D;51061;45.258;38.112;2022-08-05T15:43:16;29.24;47.89
64650;HTU21D;51061;45.258;38.112;2022-08-05T15:45:43;29.21;47.98
64650;HTU21D;51061;45.258;38.112;2022-08-05T15:48:10;29.19;48.13
64650;HTU21D;51061;45.258;38.112;2022-08-05T15:50:36;29.16;48.27
64650;HTU21D;51061;45.258;38.112;2022-08-05T15:53:02;29.17;48.41
64650;HTU21D;51061;45.258;38.112;2022-08-05T15:55:28;29.19;48.30
64650;HTU21D;51061;45.258;38.112;2022-08-05T15:57:54;29.22;48.23